createdAt,value
2019-01-27T00:01:10.210Z,117.03
2019-01-27T00:03:41.416Z,123.05
2019-01-27T00:06:14.979Z,146.00
2019-01-27T00:08:46.050Z,151.57
2019-01-27T00:11:18.042Z,157.32
2019-01-27T00:13:49.070Z,169.50
2019-01-27T00:16:20.173Z,97.30
2019-01-27T00:18:51.221Z,175.30
2019-01-27T00:21:22.237Z,139.18
2019-01-27T00:23:53.375Z,152.55
2019-01-27T00:26:24.524Z,142.62
2019-01-27T00:28:55.566Z,114.47
2019-01-27T00:31:26.558Z,167.60
2019-01-27T00:33:57.683Z,150.97
2019-01-27T00:36:28.517Z,170.12
2019-01-27T00:38:59.329Z,128.82
2019-01-27T00:41:30.403Z,71.70
2019-01-27T00:44:01.449Z,139.45
2019-01-27T00:46:32.432Z,173.68
2019-01-27T00:49:04.426Z,150.53
2019-01-27T00:51:35.399Z,153.93
2019-01-27T00:54:06.846Z,163.12
2019-01-27T00:56:37.907Z,160.43
2019-01-27T00:59:08.816Z,159.43
2019-01-27T01:01:40.068Z,148.05
2019-01-27T01:04:10.913Z,124.38
2019-01-27T01:06:42.079Z,79.62
2019-01-27T01:09:13.582Z,80.47
2019-01-27T01:11:44.412Z,127.58
2019-01-27T01:14:15.284Z,141.80
2019-01-27T01:16:46.364Z,124.72
2019-01-27T01:19:17.281Z,115.15
2019-01-27T01:21:48.258Z,82.95
2019-01-27T01:24:19.108Z,132.75
2019-01-27T01:26:50.274Z,116.35
2019-01-27T01:29:21.117Z,138.47
2019-01-27T01:31:52.009Z,89.67
2019-01-27T01:34:23.029Z,126.87
2019-01-27T01:36:53.927Z,125.05
2019-01-27T01:39:24.727Z,116.93
2019-01-27T01:41:55.810Z,130.82
2019-01-27T01:44:26.646Z,76.17
2019-01-27T01:46:57.473Z,147.35
2019-01-27T01:49:29.415Z,124.45
2019-01-27T01:52:00.353Z,103.75
2019-01-27T01:54:31.435Z,151.70
2019-01-27T01:57:02.293Z,140.92
2019-01-27T01:59:33.149Z,143.78
2019-01-27T02:02:04.143Z,131.30
2019-01-27T02:04:35.008Z,129.80
2019-01-27T02:07:06.349Z,130.03
2019-01-27T02:09:37.495Z,101.82
2019-01-27T02:12:08.479Z,128.80
2019-01-27T02:14:40.601Z,138.40
2019-01-27T02:17:11.533Z,133.55
2019-01-27T02:19:42.485Z,127.07
2019-01-27T02:22:13.406Z,82.05
2019-01-27T02:24:44.386Z,101.62
2019-01-27T02:27:15.588Z,123.20
2019-01-27T02:29:46.388Z,129.42
2019-01-27T02:32:17.307Z,138.92
2019-01-27T02:34:49.159Z,144.20
2019-01-27T02:37:20.011Z,139.40
2019-01-27T02:39:50.862Z,112.95
2019-01-27T02:42:21.759Z,90.97
2019-01-27T02:44:52.632Z,136.05
2019-01-27T02:47:23.581Z,147.32
2019-01-27T02:49:54.414Z,124.80
2019-01-27T02:52:25.414Z,137.12
2019-01-27T02:54:56.464Z,129.12
2019-01-27T02:57:27.559Z,145.12
2019-01-27T02:59:58.623Z,135.45
2019-01-27T03:02:29.648Z,129.07
2019-01-27T03:05:02.136Z,118.50
2019-01-27T03:07:38.893Z,149.27
2019-01-27T03:10:13.306Z,117.85
2019-01-27T03:12:44.162Z,145.82
2019-01-27T03:15:19.439Z,144.43
2019-01-27T03:17:51.088Z,173.05
2019-01-27T03:20:22.044Z,102.70
2019-01-27T03:22:52.999Z,154.07
2019-01-27T03:25:23.841Z,158.03
2019-01-27T03:27:54.829Z,153.02
2019-01-27T03:30:26.344Z,171.77
2019-01-27T03:32:57.389Z,170.70
2019-01-27T03:35:28.242Z,170.68
2019-01-27T03:37:59.369Z,162.85
2019-01-27T03:40:30.350Z,164.57
2019-01-27T03:43:01.363Z,161.85
2019-01-27T03:45:32.327Z,184.75
2019-01-27T03:48:03.687Z,213.60
2019-01-27T03:50:34.587Z,173.38
2019-01-27T03:53:05.900Z,163.50
2019-01-27T03:55:37.033Z,165.75
2019-01-27T03:58:08.039Z,123.22
2019-01-27T04:00:39.054Z,137.75
2019-01-27T04:03:10.136Z,138.60
2019-01-27T04:05:40.894Z,127.60
2019-01-27T04:08:12.500Z,126.18
2019-01-27T04:10:44.753Z,131.90
2019-01-27T04:13:15.873Z,133.12
2019-01-27T04:15:46.973Z,128.85
2019-01-27T04:18:18.208Z,111.60
2019-01-27T04:20:49.327Z,125.62
2019-01-27T04:23:20.249Z,95.17
2019-01-27T04:25:51.693Z,117.17
2019-01-27T04:28:22.835Z,134.80
2019-01-27T04:30:53.604Z,123.02
2019-01-27T04:33:25.568Z,129.68
2019-01-27T04:35:56.398Z,140.62
2019-01-27T04:38:27.360Z,127.90
2019-01-27T04:40:58.166Z,62.95
2019-01-27T04:43:29.308Z,109.85
2019-01-27T04:46:00.208Z,133.20
2019-01-27T04:48:31.249Z,118.02
2019-01-27T04:51:02.212Z,119.67
2019-01-27T04:53:33.351Z,117.65
2019-01-27T04:56:05.256Z,114.75
2019-01-27T04:58:36.089Z,120.13
2019-01-27T05:01:07.372Z,111.90
2019-01-27T05:03:49.365Z,110.80
2019-01-27T05:06:20.274Z,109.03
2019-01-27T05:08:51.329Z,111.10
2019-01-27T05:11:22.230Z,119.50
2019-01-27T05:13:53.188Z,116.22
2019-01-27T05:16:24.117Z,126.85
2019-01-27T05:18:54.967Z,107.60
2019-01-27T05:21:26.859Z,118.95
2019-01-27T05:23:57.805Z,119.37
2019-01-27T05:26:28.614Z,115.50
2019-01-27T05:28:59.503Z,108.35
2019-01-27T05:31:30.415Z,108.67
2019-01-27T05:34:01.276Z,112.47
2019-01-27T05:36:32.321Z,115.45
2019-01-27T05:39:03.884Z,106.30
2019-01-27T05:41:34.865Z,116.28
2019-01-27T05:44:05.996Z,113.60
2019-01-27T05:46:36.789Z,110.80
2019-01-27T05:49:07.941Z,117.70
2019-01-27T05:51:38.933Z,117.65
2019-01-27T05:54:09.904Z,118.08
2019-01-27T05:56:41.006Z,112.42
2019-01-27T05:59:11.873Z,129.05
2019-01-27T06:01:43.261Z,105.67
2019-01-27T06:04:14.601Z,100.30
2019-01-27T06:06:45.616Z,128.00
2019-01-27T06:09:16.520Z,124.85
2019-01-27T06:11:47.547Z,103.53
2019-01-27T06:14:18.369Z,112.62
2019-01-27T06:16:49.292Z,127.92
2019-01-27T06:19:20.220Z,106.40
2019-01-27T06:21:51.078Z,120.42
2019-01-27T06:24:22.394Z,112.15
2019-01-27T06:26:53.372Z,117.40
2019-01-27T06:29:24.377Z,109.52
2019-01-27T06:31:55.567Z,113.30
2019-01-27T06:34:26.696Z,121.35
2019-01-27T06:36:57.593Z,123.97
2019-01-27T06:39:28.649Z,106.10
2019-01-27T06:41:59.736Z,103.87
2019-01-27T06:44:30.807Z,97.72
2019-01-27T06:47:02.009Z,101.55
2019-01-27T06:49:33.097Z,115.25
2019-01-27T06:52:04.157Z,111.45
2019-01-27T06:54:35.565Z,97.80
2019-01-27T06:57:06.673Z,106.97
2019-01-27T06:59:45.457Z,112.05
2019-01-27T07:02:41.441Z,104.05
2019-01-27T07:05:49.853Z,106.45
2019-01-27T07:08:51.633Z,107.17
2019-01-27T07:11:28.665Z,109.57
2019-01-27T07:14:30.095Z,109.15
2019-01-27T07:17:18.420Z,107.90
2019-01-27T07:20:10.709Z,114.35
2019-01-27T07:22:54.825Z,103.75
2019-01-27T07:25:38.802Z,107.03
2019-01-27T07:28:31.807Z,113.85
2019-01-27T07:31:30.448Z,110.28
2019-01-27T07:34:26.104Z,100.67
2019-01-27T07:37:21.566Z,123.77
2019-01-27T07:40:20.372Z,119.70
2019-01-27T07:43:16.135Z,114.67
2019-01-27T07:46:16.650Z,116.08
2019-01-27T07:49:12.413Z,132.25
2019-01-27T07:52:00.959Z,127.55
2019-01-27T07:55:05.628Z,122.93
2019-01-27T07:58:01.272Z,121.77
2019-01-27T08:00:45.510Z,116.73
2019-01-27T08:03:31.927Z,116.93
2019-01-27T08:06:19.656Z,116.37
2019-01-27T08:09:12.742Z,111.70
2019-01-27T08:12:17.453Z,124.72
2019-01-27T08:15:12.357Z,114.50
2019-01-27T08:18:02.991Z,113.62
2019-01-27T08:20:48.710Z,112.47
2019-01-27T08:23:30.125Z,113.77
2019-01-27T08:26:15.556Z,111.33
2019-01-27T08:29:05.474Z,117.10
2019-01-27T08:32:01.353Z,110.05
2019-01-27T08:34:50.012Z,117.73
2019-01-27T08:37:40.013Z,123.80
2019-01-27T08:40:32.131Z,108.55
2019-01-27T08:43:20.553Z,113.10
2019-01-27T08:46:02.014Z,113.60
2019-01-27T08:48:33.099Z,119.93
2019-01-27T08:51:04.388Z,114.50
2019-01-27T08:53:35.509Z,130.10
2019-01-27T08:56:06.837Z,113.40
2019-01-27T08:58:39.123Z,117.20
2019-01-27T09:01:41.258Z,113.33
2019-01-27T09:04:19.054Z,111.67
2019-01-27T09:07:12.508Z,112.47
2019-01-27T09:10:03.275Z,105.17
2019-01-27T09:12:46.068Z,109.27
2019-01-27T09:15:50.999Z,95.87
2019-01-27T09:18:34.318Z,110.48
2019-01-27T09:21:27.018Z,105.67
2019-01-27T09:24:18.263Z,101.67
2019-01-27T09:26:59.262Z,90.03
2019-01-27T09:29:42.478Z,100.30
2019-01-27T09:32:28.390Z,90.40
2019-01-27T09:35:16.611Z,89.13
2019-01-27T09:38:02.230Z,104.97
2019-01-27T09:40:39.359Z,89.00
2019-01-27T09:43:30.192Z,83.73
2019-01-27T09:46:11.519Z,98.90
2019-01-27T09:48:53.401Z,89.00
2019-01-27T09:51:30.377Z,78.72
2019-01-27T09:54:23.039Z,86.63
2019-01-27T09:57:25.036Z,97.47
2019-01-27T10:00:04.496Z,104.00
2019-01-27T10:02:57.889Z,98.57
2019-01-27T10:05:37.463Z,95.20
2019-01-27T10:08:26.379Z,89.13
2019-01-27T10:11:17.169Z,104.20
2019-01-27T10:14:01.129Z,101.83
2019-01-27T10:17:12.344Z,95.77
2019-01-27T10:20:08.724Z,93.67
2019-01-27T10:23:10.546Z,100.63
2019-01-27T10:25:59.249Z,94.43
2019-01-27T10:28:47.885Z,101.57
2019-01-27T10:31:41.088Z,92.27
2019-01-27T10:34:40.406Z,89.90
2019-01-27T10:37:33.128Z,99.03
2019-01-27T10:40:14.666Z,88.10
2019-01-27T10:43:11.193Z,96.93
2019-01-27T10:46:19.217Z,96.10
2019-01-27T10:49:07.680Z,95.13
2019-01-27T10:51:50.037Z,95.30
2019-01-27T10:54:40.309Z,96.43
2019-01-27T10:57:22.367Z,95.67
2019-01-27T11:00:18.260Z,92.43
2019-01-27T11:03:11.882Z,108.77
2019-01-27T11:06:05.848Z,92.23
2019-01-27T11:08:49.021Z,92.20
2019-01-27T11:11:38.625Z,93.23
2019-01-27T11:14:34.214Z,85.50
2019-01-27T11:17:32.281Z,92.83
2019-01-27T11:20:40.032Z,113.20
2019-01-27T11:23:25.656Z,104.20
2019-01-27T11:26:04.287Z,107.67
2019-01-27T11:29:03.173Z,103.70
2019-01-27T11:31:53.404Z,100.20
2019-01-27T11:34:37.972Z,90.73
2019-01-27T11:37:47.342Z,98.07
2019-01-27T11:40:37.238Z,98.87
2019-01-27T11:43:27.464Z,103.97
2019-01-27T11:46:14.014Z,111.53
2019-01-27T11:48:52.627Z,103.53
2019-01-27T11:51:38.147Z,102.70
2019-01-27T11:54:09.432Z,101.63
2019-01-27T11:56:37.249Z,100.20
2019-01-27T11:59:08.889Z,93.97
2019-01-27T12:01:39.795Z,93.73
2019-01-27T12:04:07.625Z,115.97
2019-01-27T12:06:38.866Z,113.23
2019-01-27T12:09:16.225Z,125.67
2019-01-27T12:11:49.988Z,121.17
2019-01-27T12:14:22.031Z,100.53
2019-01-27T12:16:53.537Z,117.80
2019-01-27T12:19:24.501Z,108.80
2019-01-27T12:21:55.876Z,114.10
2019-01-27T12:24:26.900Z,124.47
2019-01-27T12:26:57.754Z,120.03
2019-01-27T12:29:28.911Z,116.57
2019-01-27T12:31:59.885Z,117.60
2019-01-27T12:34:30.778Z,96.07
2019-01-27T12:37:01.573Z,121.87
2019-01-27T12:39:32.402Z,117.20
2019-01-27T12:42:03.339Z,107.80
2019-01-27T12:44:34.062Z,131.23
2019-01-27T12:47:04.875Z,114.47
2019-01-27T12:49:35.748Z,168.83
2019-01-27T12:52:06.642Z,121.30
2019-01-27T12:54:37.488Z,150.63
2019-01-27T12:57:08.365Z,120.30
2019-01-27T12:59:39.076Z,112.60
2019-01-27T13:02:10.117Z,125.60
2019-01-27T13:04:41.073Z,118.57
2019-01-27T13:07:11.927Z,116.80
2019-01-27T13:09:42.871Z,117.53
2019-01-27T13:12:13.678Z,124.37
2019-01-27T13:14:44.596Z,116.50
2019-01-27T13:17:15.407Z,121.27
2019-01-27T13:19:53.714Z,121.27
2019-01-27T13:22:21.342Z,118.37
2019-01-27T13:24:52.399Z,115.77
2019-01-27T13:27:23.488Z,120.53
2019-01-27T13:29:54.347Z,134.90
2019-01-27T13:32:25.293Z,139.37
2019-01-27T13:34:56.370Z,141.03
2019-01-27T13:37:27.466Z,148.33
2019-01-27T13:42:37.426Z,132.17
2019-01-27T13:45:09.856Z,162.57
2019-01-27T13:47:40.651Z,156.97
2019-01-27T13:50:11.915Z,160.57
2019-01-27T13:52:44.138Z,166.80
2019-01-27T13:55:20.926Z,174.50
2019-01-27T13:57:51.795Z,154.43
2019-01-27T14:00:24.903Z,175.57
2019-01-27T14:02:55.994Z,161.80
2019-01-27T14:05:27.180Z,151.17
2019-01-27T14:07:58.091Z,125.03
2019-01-27T14:10:29.299Z,167.83
2019-01-27T14:13:00.281Z,178.50
2019-01-27T14:15:32.912Z,163.87
2019-01-27T14:18:04.315Z,151.40
2019-01-27T14:20:35.207Z,172.20
2019-01-27T14:23:06.890Z,192.10
2019-01-27T14:25:38.596Z,168.07
2019-01-27T14:28:10.410Z,126.40
2019-01-27T14:30:43.399Z,197.00
2019-01-27T14:33:14.743Z,190.50
2019-01-27T14:35:46.107Z,124.37
2019-01-27T14:38:17.678Z,183.00
2019-01-27T14:40:49.277Z,175.43
2019-01-27T14:43:20.559Z,147.97
2019-01-27T14:45:51.986Z,167.40
2019-01-27T14:48:24.085Z,168.23
2019-01-27T14:50:55.655Z,168.30
2019-01-27T14:54:23.750Z,156.03
2019-01-27T14:56:59.377Z,208.20
2019-01-27T14:59:30.822Z,135.13
2019-01-27T15:02:13.434Z,184.17
2019-01-27T15:05:02.755Z,172.60
2019-01-27T15:07:51.096Z,170.17
2019-01-27T15:10:33.712Z,207.70
2019-01-27T15:13:05.739Z,207.03
2019-01-27T15:15:37.190Z,234.50
2019-01-27T15:18:13.688Z,179.80
2019-01-27T15:20:55.602Z,251.87
2019-01-27T15:24:15.271Z,197.20
2019-01-27T15:32:41.327Z,198.37
2019-01-27T15:35:46.363Z,235.33
2019-01-27T15:38:19.707Z,228.97
2019-01-27T15:40:50.986Z,240.13
2019-01-27T15:43:23.646Z,239.97
2019-01-27T15:45:55.082Z,184.37
2019-01-27T15:48:31.839Z,246.37
2019-01-27T15:51:18.256Z,247.10
2019-01-27T15:56:53.951Z,255.63
2019-01-27T15:59:46.594Z,261.00
2019-01-27T16:02:19.358Z,239.80
2019-01-27T16:04:51.255Z,267.67
2019-01-27T16:07:22.815Z,258.90
2019-01-27T16:09:57.385Z,272.70
2019-01-27T16:12:28.380Z,275.20
2019-01-27T16:15:02.526Z,276.23
2019-01-27T16:17:34.138Z,270.23
2019-01-27T16:25:44.460Z,264.43
2019-01-27T16:28:19.554Z,243.97
2019-01-27T16:31:30.761Z,272.83
2019-01-27T16:34:19.620Z,241.17
2019-01-27T16:36:51.490Z,260.47
2019-01-27T16:39:22.733Z,265.47
2019-01-27T16:41:54.952Z,282.27
2019-01-27T16:44:28.511Z,277.63
2019-01-27T16:46:59.487Z,237.57
2019-01-27T16:49:30.286Z,254.33
2019-01-27T16:52:01.155Z,274.27
2019-01-27T16:54:31.975Z,282.57
2019-01-27T16:57:02.804Z,291.10
2019-01-27T16:59:33.695Z,315.37
2019-01-27T17:02:04.631Z,308.27
2019-01-27T17:04:37.740Z,286.77
2019-01-27T17:07:08.915Z,234.67
2019-01-27T17:09:39.675Z,267.73
2019-01-27T17:12:10.618Z,287.83
2019-01-27T17:14:41.389Z,280.63
2019-01-27T17:17:12.321Z,284.07
2019-01-27T17:19:44.475Z,289.97
2019-01-27T17:22:15.586Z,297.30
2019-01-27T17:24:46.478Z,281.10
2019-01-27T17:27:17.375Z,315.80
2019-01-27T17:29:48.159Z,314.63
2019-01-27T17:32:19.191Z,301.50
2019-01-27T17:34:49.980Z,281.13
2019-01-27T17:37:20.837Z,316.50
2019-01-27T17:39:51.742Z,311.47
2019-01-27T17:42:22.666Z,310.30
2019-01-27T17:44:53.435Z,299.17
2019-01-27T17:47:24.416Z,293.73
2019-01-27T17:49:55.274Z,274.43
2019-01-27T17:52:26.196Z,298.85
2019-01-27T17:54:57.021Z,293.50
2019-01-27T17:57:48.851Z,269.07
2019-01-27T18:00:50.671Z,287.70
2019-01-27T18:03:55.459Z,300.20
2019-01-27T18:06:38.505Z,320.33
2019-01-27T18:09:29.530Z,337.17
2019-01-27T18:12:17.696Z,332.13
2019-01-27T18:14:48.587Z,310.53
2019-01-27T18:17:19.401Z,285.67
2019-01-27T18:19:50.331Z,316.37
2019-01-27T18:22:21.176Z,268.03
2019-01-27T18:24:53.124Z,286.07
2019-01-27T18:27:23.916Z,288.70
2019-01-27T18:29:55.762Z,347.90
2019-01-27T18:32:26.707Z,320.63
2019-01-27T18:34:57.556Z,332.13
2019-01-27T18:37:28.479Z,371.40
2019-01-27T18:40:01.393Z,341.43
2019-01-27T18:42:32.602Z,349.67
2019-01-27T18:45:03.733Z,389.73
2019-01-27T18:47:34.547Z,357.87
2019-01-27T18:50:07.467Z,347.33
2019-01-27T18:52:38.256Z,333.10
2019-01-27T18:55:40.942Z,336.17
2019-01-27T18:58:26.769Z,311.23
2019-01-27T19:01:12.974Z,358.43
2019-01-27T19:03:55.799Z,270.00
2019-01-27T19:06:36.030Z,273.80
2019-01-27T19:09:16.501Z,320.93
2019-01-27T19:12:24.105Z,331.13
2019-01-27T19:15:13.853Z,299.10
2019-01-27T19:18:03.373Z,328.50
2019-01-27T19:20:53.113Z,302.37
2019-01-27T19:23:22.846Z,294.53
2019-01-27T19:26:11.097Z,324.53
2019-01-27T19:29:18.645Z,296.93
2019-01-27T19:32:11.389Z,278.60
2019-01-27T19:34:59.307Z,273.70
2019-01-27T19:37:54.946Z,317.33
2019-01-27T19:40:47.724Z,175.57
2019-01-27T19:43:46.497Z,263.87
2019-01-27T19:46:30.502Z,221.90
2019-01-27T19:51:58.632Z,144.37
2019-01-27T19:54:58.386Z,251.70
2019-01-27T19:57:51.008Z,291.93
2019-01-27T20:00:32.736Z,310.03
2019-01-27T20:03:17.006Z,213.97
2019-01-27T20:06:18.423Z,157.50
2019-01-27T20:09:19.901Z,236.63
2019-01-27T20:12:15.864Z,220.53
2019-01-27T20:15:03.900Z,145.27
2019-01-27T20:18:05.686Z,219.53
2019-01-27T20:20:58.201Z,241.20
2019-01-27T20:24:02.679Z,242.17
2019-01-27T20:26:56.262Z,226.83
2019-01-27T20:29:45.558Z,183.77
2019-01-27T20:32:47.522Z,200.97
2019-01-27T20:35:35.931Z,186.27
2019-01-27T20:38:28.882Z,183.83
2019-01-27T20:41:17.989Z,181.53
2019-01-27T20:43:45.928Z,184.53
2019-01-27T20:49:23.620Z,190.90
2019-01-27T20:52:09.357Z,184.47
2019-01-27T20:55:01.854Z,199.03
2019-01-27T20:57:50.914Z,197.47
2019-01-27T21:00:49.496Z,150.73
2019-01-27T21:03:27.346Z,118.90
2019-01-27T21:06:15.527Z,196.77
2019-01-27T21:09:17.136Z,186.80
2019-01-27T21:12:12.714Z,176.63
2019-01-27T21:15:09.857Z,158.93
2019-01-27T21:20:53.589Z,153.83
2019-01-27T21:23:34.825Z,184.23
2019-01-27T21:26:36.263Z,204.80
2019-01-27T21:29:16.957Z,169.90
2019-01-27T21:32:50.162Z,167.77
2019-01-27T21:35:28.806Z,154.23
2019-01-27T21:38:00.066Z,124.83
2019-01-27T21:40:31.690Z,142.77
2019-01-27T21:43:04.701Z,143.87
2019-01-27T21:45:36.106Z,125.80
2019-01-27T21:48:15.796Z,134.97
2019-01-27T21:50:48.829Z,133.60
2019-01-27T21:53:20.598Z,100.50
2019-01-27T21:55:52.230Z,164.27
2019-01-27T21:58:23.536Z,115.23
2019-01-27T22:00:59.496Z,149.30
2019-01-27T22:03:39.226Z,153.53
2019-01-27T22:06:25.616Z,170.50
2019-01-27T22:09:01.262Z,140.53
2019-01-27T22:11:47.999Z,161.53
2019-01-27T22:14:20.930Z,164.77
2019-01-27T22:16:55.209Z,128.07
2019-01-27T22:19:27.009Z,161.00
2019-01-27T22:21:58.590Z,159.67
2019-01-27T22:24:30.088Z,151.20
2019-01-27T22:27:01.520Z,153.73
2019-01-27T22:29:33.292Z,146.10
2019-01-27T22:32:06.980Z,146.67
2019-01-27T22:34:46.539Z,130.33
2019-01-27T22:37:18.142Z,78.07
2019-01-27T22:39:49.026Z,138.87
2019-01-27T22:42:29.442Z,153.53
2019-01-27T22:45:01.080Z,155.27
2019-01-27T22:47:37.007Z,149.10
2019-01-27T22:50:16.486Z,136.53
2019-01-27T22:52:50.416Z,118.77
2019-01-27T22:55:26.326Z,136.93
2019-01-27T22:58:03.058Z,101.13
2019-01-27T23:00:56.758Z,126.87
2019-01-27T23:03:28.844Z,154.10
2019-01-27T23:06:20.018Z,122.90
2019-01-27T23:08:50.891Z,152.10
2019-01-27T23:11:26.806Z,134.80
2019-01-27T23:14:00.864Z,121.03
2019-01-27T23:16:40.541Z,99.77
2019-01-27T23:19:11.577Z,98.57
2019-01-27T23:21:43.344Z,128.77
2019-01-27T23:24:14.944Z,144.73
2019-01-27T23:26:45.760Z,99.97
2019-01-27T23:29:22.908Z,133.83
2019-01-27T23:31:54.418Z,146.57
2019-01-27T23:34:25.438Z,157.07
2019-01-27T23:37:05.943Z,161.73
2019-01-27T23:39:42.476Z,126.23
2019-01-27T23:42:19.067Z,154.60
2019-01-27T23:44:50.032Z,125.73
2019-01-27T23:47:40.307Z,131.87
2019-01-27T23:50:12.733Z,159.97
2019-01-27T23:52:47.942Z,136.33
2019-01-27T23:55:19.202Z,131.97
2019-01-27T23:57:50.481Z,133.40
